Time;durP1;ratioP1;P1;durP2;ratioP2;P2;SDS_P1;SDS_P2;PMS_P1;PMS_P2;Temp;Humidity;BMP_temperature;BMP_pressure;BME280_temperature;BME280_humidity;BME280_pressure;Samples;Min_cycle;Max_cycle;Signal;HPM_P1;HPM_P2
2021/09/23 00:00:51;;;;;;;7.60;4.83;;;12.30;99.90;;;;;;5093569;28;20036;-67
2021/09/23 00:06:01;;;;;;;5.97;4.30;;;12.30;99.90;;;;;;5093124;28;20034;-67
2021/09/23 00:08:27;;;;;;;10.47;5.03;;;12.30;99.90;;;;;;5091883;28;20020;-66
2021/09/23 00:10:52;;;;;;;7.80;4.50;;;12.60;99.90;;;;;;5092238;28;20020;-66
2021/09/23 00:13:18;;;;;;;7.03;4.47;;;12.60;99.90;;;;;;5093340;28;20392;-66
2021/09/23 00:15:44;;;;;;;5.88;4.22;;;12.60;99.90;;;;;;5093343;28;20291;-66
2021/09/23 00:18:16;;;;;;;6.57;4.20;;;12.70;99.90;;;;;;5091959;28;20391;-66
2021/09/23 00:20:45;;;;;;;11.80;4.72;;;12.80;99.90;;;;;;5091956;28;20059;-67
2021/09/23 00:23:12;;;;;;;5.90;4.30;;;12.90;99.90;;;;;;5092139;28;20074;-67
2021/09/23 00:25:38;;;;;;;7.97;4.35;;;12.80;99.90;;;;;;5093415;28;20047;-67
2021/09/23 00:28:06;;;;;;;5.70;3.90;;;12.80;99.90;;;;;;5092857;28;20464;-67
2021/09/23 00:30:33;;;;;;;7.90;4.57;;;12.60;99.90;;;;;;5091876;28;20380;-67
2021/09/23 00:32:58;;;;;;;6.78;4.55;;;12.50;99.90;;;;;;5091905;28;20020;-67
2021/09/23 00:35:25;;;;;;;7.40;4.40;;;12.40;99.90;;;;;;5093211;28;20024;-67
2021/09/23 00:37:51;;;;;;;;;;;12.30;99.90;;;;;;5093425;28;20032;-67
2021/09/23 00:40:17;;;;;;;6.60;4.95;;;12.20;99.90;;;;;;5093048;28;20279;-67
2021/09/23 00:42:44;;;;;;;8.32;5.20;;;11.90;99.90;;;;;;5093010;28;20063;-67
2021/09/23 00:45:11;;;;;;;6.65;5.15;;;11.80;99.90;;;;;;5093570;28;20122;-67
2021/09/23 00:47:37;;;;;;;8.80;5.13;;;11.60;99.90;;;;;;5095034;28;20409;-67
2021/09/23 00:50:04;;;;;;;9.63;6.03;;;11.50;99.90;;;;;;5094839;28;20032;-66
2021/09/23 00:52:31;;;;;;;9.50;5.30;;;11.40;99.90;;;;;;5093597;28;20028;-66
2021/09/23 00:54:57;;;;;;;10.02;4.95;;;11.30;99.90;;;;;;5092164;28;20476;-67
2021/09/23 00:57:23;;;;;;;7.97;5.63;;;11.30;99.90;;;;;;5093890;28;20028;-66
2021/09/23 00:59:54;;;;;;;8.95;5.93;;;11.20;99.90;;;;;;5093584;28;20420;-67
2021/09/23 01:02:21;;;;;;;8.57;5.28;;;11.20;99.90;;;;;;5093530;28;20104;-67
2021/09/23 01:04:46;;;;;;;7.97;5.10;;;11.20;99.90;;;;;;5092682;28;20033;-67
2021/09/23 01:07:14;;;;;;;9.07;5.17;;;11.20;99.90;;;;;;5092937;28;20017;-67
2021/09/23 01:09:43;;;;;;;11.57;5.55;;;11.10;99.90;;;;;;5091393;28;20016;-67
2021/09/23 01:12:10;;;;;;;7.55;5.05;;;11.10;99.90;;;;;;5092727;28;20140;-67
2021/09/23 01:14:36;;;;;;;8.18;5.82;;;11.10;99.90;;;;;;5091697;28;20058;-67
2021/09/23 01:17:03;;;;;;;8.65;5.18;;;11.10;99.90;;;;;;5092680;28;20500;-67
2021/09/23 01:19:29;;;;;;;10.05;5.70;;;11.10;99.90;;;;;;5091359;28;20039;-67
2021/09/23 01:21:56;;;;;;;11.05;6.22;;;11.10;99.90;;;;;;5092976;28;20491;-67
2021/09/23 01:24:21;;;;;;;9.80;5.20;;;11.10;99.90;;;;;;5092719;28;20066;-67
2021/09/23 01:26:48;;;;;;;8.68;5.07;;;11.10;99.90;;;;;;5092979;28;20027;-67
2021/09/23 01:29:14;;;;;;;11.07;5.90;;;11.10;99.90;;;;;;5092836;28;20491;-66
2021/09/23 01:31:40;;;;;;;12.98;5.35;;;11.10;99.90;;;;;;5092770;28;20047;-66
2021/09/23 01:34:06;;;;;;;8.53;5.50;;;11.10;99.90;;;;;;5091208;28;20496;-66
2021/09/23 01:36:31;;;;;;;9.67;5.30;;;11.00;99.90;;;;;;5092582;28;20476;-66
2021/09/23 01:38:57;;;;;;;8.90;5.57;;;10.90;99.90;;;;;;5092534;28;20020;-66
2021/09/23 01:41:23;;;;;;;10.87;6.47;;;10.80;99.90;;;;;;5095776;28;20028;-66
2021/09/23 01:43:48;;;;;;;7.53;5.27;;;10.80;99.90;;;;;;5094829;28;20028;-66
2021/09/23 01:46:14;;;;;;;9.00;5.30;;;10.80;99.90;;;;;;5095979;28;20472;-66
2021/09/23 01:48:40;;;;;;;19.47;5.50;;;10.80;99.90;;;;;;5096540;28;20031;-66
2021/09/23 01:51:05;;;;;;;9.40;5.60;;;10.80;99.90;;;;;;5094750;28;20024;-66
2021/09/23 01:53:31;;;;;;;9.17;5.90;;;10.80;99.90;;;;;;5096321;28;20563;-66
2021/09/23 01:55:56;;;;;;;9.67;6.67;;;10.80;99.90;;;;;;5096116;28;20274;-66
2021/09/23 01:58:22;;;;;;;9.03;6.00;;;10.80;99.90;;;;;;5095854;28;20400;-68
2021/09/23 02:00:48;;;;;;;9.17;6.77;;;10.70;99.90;;;;;;5095023;28;20388;-67
2021/09/23 02:03:13;;;;;;;9.50;5.83;;;10.70;99.90;;;;;;5095980;28;20028;-67
2021/09/23 02:05:39;;;;;;;12.43;6.20;;;10.70;99.90;;;;;;5095151;28;20024;-67
2021/09/23 02:08:05;;;;;;;8.95;6.65;;;10.60;99.90;;;;;;5094383;28;20027;-67
2021/09/23 02:10:31;;;;;;;7.25;5.53;;;10.50;99.90;;;;;;5105660;28;20032;-67
2021/09/23 02:12:57;;;;;;;13.05;6.25;;;10.50;99.90;;;;;;5107747;28;20032;-67
2021/09/23 02:15:23;;;;;;;9.38;6.22;;;10.50;99.90;;;;;;5096923;28;20032;-67
2021/09/23 02:17:48;;;;;;;10.50;5.77;;;10.40;99.90;;;;;;5095374;28;20476;-67
2021/09/23 02:20:14;;;;;;;10.83;5.63;;;10.40;99.90;;;;;;5093960;28;20261;-67
2021/09/23 02:22:39;;;;;;;10.10;6.63;;;10.40;99.90;;;;;;5094060;28;20032;-67
2021/09/23 02:25:06;;;;;;;11.77;6.33;;;10.40;99.90;;;;;;5095271;28;20024;-67
2021/09/23 02:27:32;;;;;;;13.35;6.07;;;10.40;99.90;;;;;;5095540;28;20392;-67
2021/09/23 02:29:58;;;;;;;9.73;5.85;;;10.40;99.90;;;;;;5094408;28;20020;-66
2021/09/23 02:32:23;;;;;;;7.83;5.80;;;10.40;99.90;;;;;;5095715;28;20031;-67
2021/09/23 02:34:49;;;;;;;11.53;6.03;;;10.40;99.90;;;;;;5096008;28;20055;-67
2021/09/23 02:37:15;;;;;;;11.90;5.95;;;10.40;99.90;;;;;;5117277;22;20059;-67
2021/09/23 02:39:41;;;;;;;12.35;6.18;;;10.40;99.90;;;;;;5076979;28;20035;-68
2021/09/23 02:42:07;;;;;;;10.15;5.50;;;10.50;99.90;;;;;;5095050;28;20095;-67
2021/09/23 02:44:32;;;;;;;9.30;5.63;;;10.50;99.90;;;;;;5095140;28;20541;-68
2021/09/23 02:46:58;;;;;;;13.73;5.43;;;10.60;99.90;;;;;;5077112;28;20055;-67
2021/09/23 02:49:24;;;;;;;10.10;5.60;;;10.70;99.90;;;;;;5095201;28;20263;-68
2021/09/23 02:51:49;;;;;;;9.93;6.10;;;10.70;99.90;;;;;;5094449;28;20024;-68
2021/09/23 02:54:15;;;;;;;8.53;5.20;;;10.80;99.90;;;;;;5094841;28;20073;-68
2021/09/23 02:56:40;;;;;;;8.70;5.90;;;10.80;99.90;;;;;;5094673;28;20051;-68
2021/09/23 02:59:06;;;;;;;9.23;5.80;;;10.90;99.90;;;;;;5094789;28;20491;-68
2021/09/23 03:01:32;;;;;;;10.07;5.97;;;10.90;99.90;;;;;;5094636;28;20027;-68
2021/09/23 03:03:57;;;;;;;9.53;5.47;;;11.00;99.90;;;;;;5076942;28;20428;-68
2021/09/23 03:06:24;;;;;;;9.00;5.40;;;11.00;99.90;;;;;;5076259;28;20460;-67
2021/09/23 03:08:50;;;;;;;9.13;4.85;;;11.00;99.90;;;;;;5076527;28;20384;-67
2021/09/23 03:11:15;;;;;;;7.60;4.87;;;11.10;99.90;;;;;;5076351;28;20023;-67
2021/09/23 03:13:41;;;;;;;6.27;4.43;;;11.10;99.90;;;;;;5076311;28;20046;-67
2021/09/23 03:16:07;;;;;;;7.38;5.07;;;11.10;99.90;;;;;;5094279;28;20024;-67
2021/09/23 03:18:33;;;;;;;9.07;5.20;;;11.10;99.90;;;;;;5094412;28;20046;-67
2021/09/23 03:20:58;;;;;;;7.68;4.85;;;11.10;99.90;;;;;;5094252;28;20266;-67
2021/09/23 03:23:24;;;;;;;6.55;4.80;;;11.00;99.90;;;;;;5076069;28;20084;-67
2021/09/23 03:25:50;;;;;;;7.95;4.82;;;11.00;99.90;;;;;;5094174;28;20024;-67
2021/09/23 03:28:16;;;;;;;5.75;4.47;;;11.00;99.90;;;;;;5094120;28;20114;-67
2021/09/23 03:30:42;;;;;;;6.75;5.15;;;11.00;99.90;;;;;;5094312;28;20445;-67
2021/09/23 03:33:08;;;;;;;12.27;5.13;;;11.10;99.90;;;;;;5094549;28;20495;-67
2021/09/23 03:35:35;;;;;;;7.93;4.65;;;11.10;99.90;;;;;;5075989;28;20032;-68
2021/09/23 03:38:02;;;;;;;8.90;5.43;;;11.20;99.90;;;;;;5094090;28;20039;-67
2021/09/23 03:40:28;;;;;;;6.43;5.03;;;11.10;99.90;;;;;;5094195;28;20020;-67
2021/09/23 03:42:53;;;;;;;12.38;5.40;;;11.20;99.90;;;;;;5094966;28;20040;-67
2021/09/23 03:45:19;;;;;;;7.83;4.80;;;11.10;99.90;;;;;;5094560;28;20411;-67
2021/09/23 03:47:45;;;;;;;9.30;5.32;;;11.10;99.90;;;;;;5076453;28;20028;-68
2021/09/23 03:50:12;;;;;;;8.82;5.15;;;11.00;99.90;;;;;;5094760;28;20026;-67
2021/09/23 03:52:39;;;;;;;8.35;4.90;;;11.00;99.90;;;;;;5077025;28;20107;-67
2021/09/23 03:55:05;;;;;;;7.80;5.72;;;10.90;99.90;;;;;;5094901;28;20028;-67
2021/09/23 03:57:31;;;;;;;;;;;10.80;99.90;;;;;;5094774;28;20055;-68
2021/09/23 03:59:57;;;;;;;9.35;5.00;;;10.70;99.90;;;;;;5094132;28;20391;-68
2021/09/23 04:02:23;;;;;;;8.60;5.40;;;10.70;99.90;;;;;;5093580;28;20385;-67
2021/09/23 04:04:48;;;;;;;7.38;5.50;;;10.60;99.90;;;;;;5094521;28;20038;-67
2021/09/23 04:07:14;;;;;;;9.70;5.40;;;10.50;99.90;;;;;;5094884;28;20043;-67
2021/09/23 04:09:40;;;;;;;8.52;5.80;;;10.50;99.90;;;;;;5094736;28;20020;-68
2021/09/23 04:12:06;;;;;;;9.73;5.70;;;10.40;99.90;;;;;;5093396;28;20030;-68
2021/09/23 04:14:32;;;;;;;11.50;6.32;;;10.50;99.90;;;;;;5093631;28;20116;-68
2021/09/23 04:16:57;;;;;;;10.10;5.90;;;10.50;99.90;;;;;;5075225;28;20036;-67
2021/09/23 04:19:23;;;;;;;14.88;6.90;;;10.50;99.90;;;;;;5093403;28;20024;-67
2021/09/23 04:21:49;;;;;;;8.23;5.70;;;10.50;99.90;;;;;;5074974;28;20118;-65
2021/09/23 04:24:16;;;;;;;10.02;5.30;;;10.50;99.90;;;;;;5093242;28;20078;-67
2021/09/23 04:26:42;;;;;;;9.52;6.45;;;10.50;99.90;;;;;;5093010;28;20032;-67
2021/09/23 04:29:08;;;;;;;11.10;5.80;;;10.50;99.90;;;;;;5093289;28;20070;-67
2021/09/23 04:31:34;;;;;;;8.27;5.53;;;10.60;99.90;;;;;;5093035;28;20020;-67
2021/09/23 04:33:59;;;;;;;9.47;5.80;;;10.70;99.90;;;;;;5075400;28;20020;-68
2021/09/23 04:36:25;;;;;;;7.40;5.60;;;10.70;99.90;;;;;;5093438;28;20328;-67
2021/09/23 04:38:51;;;;;;;9.80;5.20;;;10.70;99.90;;;;;;5092899;28;20066;-69
2021/09/23 04:41:17;;;;;;;7.80;5.20;;;10.80;99.90;;;;;;5093052;28;20036;-68
2021/09/23 04:43:43;;;;;;;9.57;5.65;;;10.80;99.90;;;;;;5093206;28;20282;-69
2021/09/23 04:46:09;;;;;;;7.68;4.95;;;10.90;99.90;;;;;;5092723;28;20032;-67
2021/09/23 04:48:35;;;;;;;9.05;5.72;;;10.80;99.90;;;;;;5074810;28;20491;-67
2021/09/23 04:51:01;;;;;;;10.52;5.10;;;10.80;99.90;;;;;;5074875;28;20392;-68
2021/09/23 04:53:27;;;;;;;8.38;5.40;;;10.80;99.90;;;;;;5092883;28;20016;-67
2021/09/23 04:55:53;;;;;;;8.65;5.53;;;10.80;99.90;;;;;;5074801;28;20476;-67
2021/09/23 04:58:19;;;;;;;9.55;5.97;;;10.80;99.90;;;;;;5092477;28;20103;-66
2021/09/23 05:00:45;;;;;;;9.33;5.60;;;10.80;99.90;;;;;;5092777;28;20067;-66
2021/09/23 05:03:13;;;;;;;9.93;5.93;;;10.80;99.90;;;;;;5092801;28;20311;-66
2021/09/23 05:05:39;;;;;;;7.68;5.80;;;10.80;99.90;;;;;;5074661;28;20278;-67
2021/09/23 05:08:05;;;;;;;10.50;6.15;;;10.80;99.90;;;;;;5092687;28;20082;-67
2021/09/23 05:10:34;;;;;;;9.20;6.43;;;10.70;99.90;;;;;;5074631;28;20040;-67
2021/09/23 05:13:00;;;;;;;8.25;5.55;;;10.70;99.90;;;;;;5093087;28;20020;-67
2021/09/23 05:15:26;;;;;;;7.37;5.43;;;10.70;99.90;;;;;;5077895;28;20027;-67
2021/09/23 05:17:51;;;;;;;10.10;6.07;;;10.70;99.90;;;;;;5096491;28;20043;-67
2021/09/23 05:20:18;;;;;;;9.87;6.17;;;10.70;99.90;;;;;;5096467;28;20024;-67
2021/09/23 05:22:44;;;;;;;8.65;5.80;;;10.80;99.90;;;;;;5096381;28;20028;-67
2021/09/23 05:25:10;;;;;;;8.43;5.63;;;10.80;99.90;;;;;;5078118;28;20019;-67
2021/09/23 05:27:36;;;;;;;10.82;5.50;;;10.80;99.90;;;;;;5077911;28;20262;-67
2021/09/23 05:30:05;;;;;;;8.18;4.68;;;10.80;99.90;;;;;;5077645;28;20032;-67
2021/09/23 05:32:30;;;;;;;6.25;3.88;;;10.70;99.90;;;;;;5077306;28;20395;-67
2021/09/23 05:34:56;;;;;;;10.90;3.97;;;10.80;99.90;;;;;;5095433;28;20582;-68
2021/09/23 05:37:22;;;;;;;4.70;3.30;;;10.80;99.90;;;;;;5076135;28;20348;-69
2021/09/23 05:39:47;;;;;;;5.45;3.45;;;10.70;99.90;;;;;;5095498;28;20028;-66
2021/09/23 05:42:13;;;;;;;4.87;3.70;;;10.70;99.90;;;;;;5095584;28;20097;-67
2021/09/23 05:44:38;;;;;;;7.20;3.33;;;10.60;99.90;;;;;;5095980;28;20090;-67
2021/09/23 05:47:04;;;;;;;6.50;3.87;;;10.70;99.90;;;;;;5077550;28;20496;-67
2021/09/23 05:49:30;;;;;;;6.67;3.43;;;10.60;99.90;;;;;;5095530;28;20046;-68
2021/09/23 05:51:56;;;;;;;5.27;3.40;;;10.60;99.90;;;;;;5077400;28;20027;-67
2021/09/23 05:54:22;;;;;;;6.35;3.90;;;10.60;99.90;;;;;;5096053;28;20043;-67
2021/09/23 05:56:48;;;;;;;9.15;3.75;;;10.50;99.90;;;;;;5095379;28;20028;-68
2021/09/23 05:59:14;;;;;;;6.78;4.22;;;10.50;99.90;;;;;;5077311;28;20050;-67
2021/09/23 06:01:40;;;;;;;8.45;4.78;;;10.60;99.90;;;;;;5095503;28;20502;-66
2021/09/23 06:04:05;;;;;;;7.23;4.33;;;10.60;99.90;;;;;;5077042;28;20024;-67
2021/09/23 06:06:31;;;;;;;7.17;5.03;;;10.60;99.90;;;;;;5095320;28;20040;-66
2021/09/23 06:08:57;;;;;;;9.30;5.78;;;10.50;99.90;;;;;;5076965;28;20369;-66
2021/09/23 06:11:22;;;;;;;7.80;5.07;;;10.50;99.90;;;;;;5095361;28;20062;-66
2021/09/23 06:13:48;;;;;;;10.33;4.80;;;10.60;99.90;;;;;;5095570;28;20614;-67
2021/09/23 06:16:14;;;;;;;7.30;5.13;;;10.60;99.90;;;;;;5095439;28;20514;-67
2021/09/23 06:18:40;;;;;;;8.82;5.47;;;10.60;99.90;;;;;;5095133;28;20485;-66
2021/09/23 06:21:07;;;;;;;8.43;5.87;;;10.50;99.90;;;;;;5095261;28;20051;-67
2021/09/23 06:23:34;;;;;;;9.63;5.55;;;10.40;99.90;;;;;;5095379;28;20048;-67
2021/09/23 06:26:00;;;;;;;8.75;5.50;;;10.50;99.90;;;;;;5094230;28;20024;-67
2021/09/23 06:28:25;;;;;;;7.90;5.95;;;10.40;99.90;;;;;;5076332;28;20020;-67
2021/09/23 06:30:51;;;;;;;10.03;6.10;;;10.40;99.90;;;;;;5077140;28;20032;-68
2021/09/23 06:33:17;;;;;;;10.03;6.90;;;10.40;99.90;;;;;;5076633;28;20282;-68
2021/09/23 06:35:42;;;;;;;11.07;6.82;;;10.60;99.90;;;;;;5094694;28;20734;-68
2021/09/23 06:38:08;;;;;;;10.23;6.37;;;10.50;99.90;;;;;;5094782;28;20044;-68
2021/09/23 06:40:35;;;;;;;10.03;6.63;;;10.40;99.90;;;;;;5094705;28;20054;-66
2021/09/23 06:43:01;;;;;;;8.82;6.18;;;10.50;99.90;;;;;;5076543;28;20028;-66
2021/09/23 06:45:26;;;;;;;10.20;7.00;;;10.80;99.90;;;;;;5076675;28;20118;-67
2021/09/23 06:47:52;;;;;;;10.75;6.55;;;10.80;99.90;;;;;;5094860;28;20444;-66
2021/09/23 06:50:18;;;;;;;14.00;7.87;;;10.80;99.90;;;;;;5094564;28;20107;-67
2021/09/23 06:52:43;;;;;;;12.65;8.00;;;10.80;99.90;;;;;;5094721;28;20023;-67
2021/09/23 06:55:10;;;;;;;13.53;7.87;;;10.80;99.90;;;;;;5094581;28;20107;-67
2021/09/23 06:57:35;;;;;;;10.57;7.70;;;10.80;99.90;;;;;;5094321;28;20528;-67
2021/09/23 07:00:02;;;;;;;12.77;8.13;;;10.80;99.90;;;;;;5076263;28;20040;-67
2021/09/23 07:02:27;;;;;;;13.23;7.97;;;10.80;99.90;;;;;;5075892;28;20024;-67
2021/09/23 07:04:53;;;;;;;10.83;8.07;;;10.80;99.90;;;;;;5094516;28;20184;-67
2021/09/23 07:07:19;;;;;;;13.20;9.13;;;10.90;99.90;;;;;;5094250;28;20023;-67
2021/09/23 07:09:45;;;;;;;14.80;8.83;;;11.00;99.90;;;;;;5093997;28;20803;-67
2021/09/23 07:12:11;;;;;;;13.38;9.05;;;11.10;99.90;;;;;;5093927;28;20379;-67
2021/09/23 07:14:37;;;;;;;14.88;8.88;;;11.30;99.90;;;;;;5093931;28;20028;-67
2021/09/23 07:17:03;;;;;;;11.77;8.50;;;11.30;99.90;;;;;;5093832;28;20089;-67
2021/09/23 07:19:29;;;;;;;16.45;9.18;;;11.40;99.90;;;;;;5075509;28;20028;-67
2021/09/23 07:21:55;;;;;;;15.25;9.35;;;11.30;99.90;;;;;;5093938;28;20525;-67
2021/09/23 07:24:20;;;;;;;14.00;9.70;;;11.40;99.90;;;;;;5075521;28;20028;-67
2021/09/23 07:26:46;;;;;;;13.70;9.63;;;11.40;99.90;;;;;;5075682;28;20388;-67
2021/09/23 07:29:15;;;;;;;14.77;9.77;;;11.40;99.90;;;;;;5075573;28;20057;-67
2021/09/23 07:31:41;;;;;;;16.23;10.73;;;11.40;99.90;;;;;;5093737;28;20254;-67
2021/09/23 07:34:07;;;;;;;;;;;11.40;99.90;;;;;;5094079;28;20020;-67
2021/09/23 07:36:32;;;;;;;14.10;9.00;;;11.60;99.90;;;;;;5075464;28;19904;-67
2021/09/23 07:38:58;;;;;;;16.35;9.82;;;11.60;99.90;;;;;;5075138;28;20046;-66
2021/09/23 07:41:24;;;;;;;16.95;11.30;;;11.70;99.90;;;;;;5093839;28;20407;-67
2021/09/23 07:43:50;;;;;;;18.85;10.90;;;11.80;99.90;;;;;;5093647;28;20109;-66
2021/09/23 07:46:15;;;;;;;16.70;10.30;;;11.80;99.90;;;;;;5093502;28;20028;-67
2021/09/23 07:48:41;;;;;;;17.33;11.40;;;11.90;99.90;;;;;;5093439;28;20047;-67
2021/09/23 07:51:07;;;;;;;15.93;11.20;;;12.20;99.90;;;;;;5093818;28;20021;-68
2021/09/23 07:53:32;;;;;;;16.53;11.87;;;12.20;99.90;;;;;;5093438;28;20262;-68
2021/09/23 07:55:59;;;;;;;18.07;11.93;;;12.30;99.90;;;;;;5093182;28;20020;-68
2021/09/23 07:58:25;;;;;;;16.17;10.68;;;12.30;99.90;;;;;;5074852;28;20082;-68
2021/09/23 08:00:50;;;;;;;17.83;10.67;;;12.40;99.90;;;;;;5093467;28;20024;-68
2021/09/23 08:03:16;;;;;;;17.10;10.73;;;12.50;99.90;;;;;;5093472;28;20031;-67
2021/09/23 08:05:41;;;;;;;14.80;9.80;;;12.50;99.90;;;;;;5093134;28;20278;-67
2021/09/23 08:08:09;;;;;;;15.20;10.80;;;12.50;99.90;;;;;;5075460;28;20466;-69
2021/09/23 08:10:36;;;;;;;15.15;9.63;;;12.60;99.90;;;;;;5093017;28;20091;-67
2021/09/23 08:13:02;;;;;;;13.52;10.13;;;12.60;99.90;;;;;;5093147;28;20086;-68
2021/09/23 08:15:29;;;;;;;16.10;9.93;;;12.80;99.90;;;;;;5075067;28;20034;-67
2021/09/23 08:17:56;;;;;;;12.80;9.45;;;12.90;99.90;;;;;;5074795;28;20075;-68
2021/09/23 08:20:22;;;;;;;12.95;9.00;;;13.00;99.90;;;;;;5093010;28;20030;-68
2021/09/23 08:22:48;;;;;;;14.35;8.80;;;13.10;99.90;;;;;;5093276;28;20036;-70
2021/09/23 08:25:13;;;;;;;12.70;9.15;;;13.20;99.90;;;;;;5093966;28;20028;-67
2021/09/23 08:27:39;;;;;;;12.65;8.50;;;13.30;99.90;;;;;;5094546;28;20084;-68
2021/09/23 08:30:05;;;;;;;13.35;8.73;;;13.40;99.90;;;;;;5096939;28;20510;-69
2021/09/23 08:32:31;;;;;;;15.82;8.35;;;13.40;99.90;;;;;;5096276;28;20040;-68
2021/09/23 08:34:57;;;;;;;10.30;7.63;;;13.50;99.90;;;;;;5095868;28;20024;-68
2021/09/23 08:37:23;;;;;;;13.75;7.75;;;13.60;99.90;;;;;;5077328;28;20036;-69
2021/09/23 08:39:48;;;;;;;13.32;9.40;;;13.70;99.90;;;;;;5098014;28;20028;-70
2021/09/23 08:42:15;;;;;;;12.30;7.43;;;13.80;99.90;;;;;;5094840;28;20039;-70
2021/09/23 08:44:42;;;;;;;12.05;7.10;;;13.90;99.90;;;;;;5093684;28;20024;-70
2021/09/23 08:47:08;;;;;;;14.45;7.60;;;14.10;99.90;;;;;;5095481;28;20567;-69
2021/09/23 08:49:34;;;;;;;12.68;8.30;;;14.30;99.90;;;;;;5098476;28;20074;-70
2021/09/23 08:51:59;;;;;;;11.20;7.38;;;14.50;99.90;;;;;;5081831;28;20024;-68
2021/09/23 08:54:25;;;;;;;9.88;6.70;;;14.70;99.90;;;;;;5097779;28;20031;-70
2021/09/23 08:56:51;;;;;;;11.15;6.07;;;15.70;99.90;;;;;;5097964;28;20024;-70
2021/09/23 08:59:16;;;;;;;7.93;5.43;;;18.10;99.90;;;;;;5097281;28;20024;-68
2021/09/23 09:01:50;;;;;;;6.93;5.35;;;21.10;99.90;;;;;;5097244;28;20020;-71
2021/09/23 09:04:16;;;;;;;7.25;4.95;;;23.70;95.50;;;;;;5098050;28;20047;-69
2021/09/23 09:07:02;;;;;;;10.50;5.38;;;25.50;90.80;;;;;;5096773;28;20039;-69
2021/09/23 09:09:28;;;;;;;5.15;4.53;;;27.50;85.70;;;;;;5097047;28;20035;-68
2021/09/23 09:11:56;;;;;;;7.43;4.75;;;28.90;79.40;;;;;;5096800;28;20047;-70
2021/09/23 09:14:31;;;;;;;13.55;4.63;;;30.10;74.50;;;;;;5096671;28;20023;-70
2021/09/23 09:17:06;;;;;;;7.80;5.00;;;30.90;70.50;;;;;;5096475;28;20020;-70
2021/09/23 09:20:04;;;;;;;5.45;4.30;;;32.00;66.60;;;;;;5096581;28;20111;-71
2021/09/23 09:22:33;;;;;;;5.68;4.90;;;32.60;63.40;;;;;;5084530;28;20052;-69
2021/09/23 09:25:09;;;;;;;5.50;4.43;;;33.00;61.60;;;;;;5096223;28;20432;-70
2021/09/23 09:27:37;;;;;;;5.07;4.18;;;33.40;60.30;;;;;;5096205;28;20476;-68
2021/09/23 09:30:09;;;;;;;5.70;4.78;;;33.10;59.60;;;;;;5096117;28;20460;-70
2021/09/23 09:32:43;;;;;;;5.82;4.57;;;32.90;59.40;;;;;;5095903;28;20024;-69
2021/09/23 09:35:17;;;;;;;5.90;4.35;;;33.50;58.70;;;;;;5077683;28;20020;-70
2021/09/23 09:37:47;;;;;;;11.07;4.43;;;32.90;58.80;;;;;;5077338;28;20042;-69
2021/09/23 09:40:16;;;;;;;4.70;4.07;;;33.30;58.30;;;;;;5096120;28;20061;-69
2021/09/23 09:42:44;;;;;;;5.72;3.83;;;33.80;58.00;;;;;;5095884;28;20067;-69
2021/09/23 09:45:16;;;;;;;5.72;3.95;;;34.10;56.80;;;;;;5096143;28;20036;-70
2021/09/23 09:47:42;;;;;;;121.13;21.20;;;34.50;56.30;;;;;;5096325;28;20099;-70
2021/09/23 09:50:16;;;;;;;149.75;19.40;;;35.10;56.00;;;;;;5077900;28;20051;-69
2021/09/23 09:52:58;;;;;;;37.85;7.25;;;35.90;54.30;;;;;;5095945;28;20508;-69
2021/09/23 09:55:35;;;;;;;11.32;4.13;;;35.80;53.40;;;;;;5095724;28;20028;-69
2021/09/23 09:58:02;;;;;;;6.78;3.95;;;36.10;52.70;;;;;;5077511;28;20027;-70
2021/09/23 10:00:29;;;;;;;5.97;3.92;;;35.70;52.90;;;;;;5076340;28;20024;-70
2021/09/23 10:02:56;;;;;;;4.18;3.35;;;35.10;52.80;;;;;;5096172;28;20016;-70
2021/09/23 10:05:23;;;;;;;6.35;3.80;;;35.40;52.40;;;;;;5095504;28;20020;-69
2021/09/23 10:07:52;;;;;;;4.18;3.58;;;35.90;52.20;;;;;;5095828;28;20020;-69
2021/09/23 10:10:21;;;;;;;5.47;3.35;;;35.50;51.50;;;;;;5095524;28;20384;-70
2021/09/23 10:12:48;;;;;;;4.65;4.10;;;35.40;51.70;;;;;;5095594;28;20021;-69
2021/09/23 10:15:16;;;;;;;5.57;4.07;;;35.00;51.90;;;;;;5095497;28;20020;-70
2021/09/23 10:17:46;;;;;;;4.63;3.38;;;35.50;52.00;;;;;;5095129;28;20042;-70
2021/09/23 10:20:14;;;;;;;4.18;2.88;;;35.50;51.80;;;;;;5095613;28;20040;-69
2021/09/23 10:22:40;;;;;;;5.57;3.08;;;35.80;50.80;;;;;;5095260;28;20048;-70
2021/09/23 10:25:09;;;;;;;3.63;3.30;;;35.40;50.70;;;;;;5095476;28;20028;-70
2021/09/23 10:30:20;;;;;;;3.40;2.50;;;36.10;50.20;;;;;;5095339;28;20030;-70
2021/09/23 10:32:47;;;;;;;3.75;2.38;;;35.90;49.70;;;;;;5095862;28;20095;-70
2021/09/23 10:35:14;;;;;;;4.00;2.55;;;35.60;49.40;;;;;;5077215;28;20070;-70
2021/09/23 10:37:40;;;;;;;4.90;3.03;;;35.40;49.90;;;;;;5077370;28;20061;-70
2021/09/23 10:40:07;;;;;;;3.67;2.88;;;35.30;50.00;;;;;;5095887;28;20024;-70
2021/09/23 10:42:33;;;;;;;3.42;3.00;;;35.30;50.20;;;;;;5095276;28;20023;-69
2021/09/23 10:45:00;;;;;;;4.25;3.03;;;35.10;51.40;;;;;;5096313;28;20073;-70
2021/09/23 10:47:34;;;;;;;3.45;2.58;;;34.80;51.10;;;;;;5096055;28;20024;-70
2021/09/23 10:50:03;;;;;;;4.80;2.93;;;35.30;51.00;;;;;;5077747;28;20028;-69
2021/09/23 10:52:31;;;;;;;5.28;3.00;;;35.40;50.90;;;;;;5096067;28;20028;-69
2021/09/23 10:54:58;;;;;;;6.28;3.67;;;33.10;52.40;;;;;;5097074;28;20023;-70
2021/09/23 10:57:28;;;;;;;5.90;3.17;;;32.10;54.00;;;;;;5096799;28;20433;-70
2021/09/23 10:59:55;;;;;;;5.88;3.63;;;30.90;55.30;;;;;;5097344;28;20028;-70
2021/09/23 11:02:25;;;;;;;6.40;3.10;;;29.20;57.40;;;;;;5097006;28;20068;-70
2021/09/23 11:04:54;;;;;;;5.65;3.60;;;27.80;60.10;;;;;;5095812;28;20054;-69
2021/09/23 11:07:21;;;;;;;7.97;3.55;;;26.30;63.10;;;;;;5095010;28;20469;-71
2021/09/23 11:10:08;;;;;;;7.70;4.22;;;25.30;66.10;;;;;;5094734;28;20027;-70
2021/09/23 11:12:34;;;;;;;6.97;4.72;;;24.10;68.80;;;;;;5094084;28;20453;-70
2021/09/23 11:15:01;;;;;;;7.40;4.47;;;23.40;71.60;;;;;;5094492;28;20393;-70
2021/09/23 11:17:28;;;;;;;11.18;5.15;;;22.60;73.50;;;;;;5075915;28;20035;-69
2021/09/23 11:20:16;;;;;;;4.90;4.13;;;22.20;75.60;;;;;;5094143;28;20095;-69
2021/09/23 11:22:49;;;;;;;6.32;3.72;;;21.90;77.20;;;;;;5094229;28;20047;-69
2021/09/23 11:25:21;;;;;;;7.55;5.05;;;21.50;77.60;;;;;;5093994;28;20042;-69
2021/09/23 11:27:48;;;;;;;8.68;4.15;;;21.30;79.40;;;;;;5093747;28;20149;-69
2021/09/23 11:30:17;;;;;;;16.95;4.53;;;21.10;80.70;;;;;;5094209;28;20016;-69
2021/09/23 11:33:04;;;;;;;5.82;4.25;;;21.00;81.70;;;;;;5094031;28;20020;-69
2021/09/23 11:35:39;;;;;;;6.45;4.30;;;20.90;82.60;;;;;;5075730;28;20024;-69
2021/09/23 11:38:06;;;;;;;6.22;4.35;;;20.90;83.10;;;;;;5075250;28;20040;-69
2021/09/23 11:40:34;;;;;;;6.72;4.22;;;20.80;83.50;;;;;;5093918;28;20056;-69
2021/09/23 11:43:07;;;;;;;11.57;4.63;;;20.70;84.00;;;;;;5093652;28;20022;-69
2021/09/23 11:45:35;;;;;;;9.85;4.88;;;20.70;84.70;;;;;;5075542;28;20043;-69
2021/09/23 11:48:07;;;;;;;7.10;3.80;;;20.70;85.90;;;;;;5093752;28;20539;-69
2021/09/23 11:50:43;;;;;;;6.30;3.90;;;20.60;83.70;;;;;;5094025;28;20107;-71
2021/09/23 11:53:29;;;;;;;5.25;3.90;;;20.50;84.80;;;;;;5075460;28;20119;-69
2021/09/23 11:55:57;;;;;;;5.80;3.75;;;20.50;84.50;;;;;;5075294;28;20028;-69
2021/09/23 11:58:23;;;;;;;4.95;3.17;;;20.60;83.30;;;;;;5075517;28;20028;-70
2021/09/23 12:00:51;;;;;;;5.53;3.47;;;20.60;84.60;;;;;;5093450;28;20089;-70
2021/09/23 12:03:18;;;;;;;6.35;3.10;;;20.70;84.50;;;;;;5075678;28;20115;-70
2021/09/23 12:05:46;;;;;;;6.35;3.30;;;20.70;83.40;;;;;;5093729;28;20341;-70
2021/09/23 12:08:17;;;;;;;5.60;2.80;;;20.70;82.70;;;;;;5093541;28;20028;-69
2021/09/23 12:10:50;;;;;;;5.07;3.13;;;20.80;81.80;;;;;;5093630;28;20047;-68
2021/09/23 12:16:00;;;;;;;3.88;2.80;;;20.90;81.00;;;;;;5093490;28;20024;-70
2021/09/23 12:18:27;;;;;;;4.75;2.58;;;21.00;80.10;;;;;;5074827;28;20032;-68
2021/09/23 12:20:56;;;;;;;3.28;2.67;;;21.00;81.00;;;;;;5093271;28;20032;-69
2021/09/23 12:23:29;;;;;;;6.10;2.95;;;21.10;80.70;;;;;;5092654;28;20063;-69
2021/09/23 12:26:09;;;;;;;4.47;3.28;;;21.10;80.60;;;;;;5093085;28;20035;-69
2021/09/23 12:28:39;;;;;;;6.93;3.20;;;21.10;80.40;;;;;;5092957;28;20059;-70
2021/09/23 12:31:08;;;;;;;4.75;3.10;;;21.10;81.00;;;;;;5092699;28;20387;-71
2021/09/23 12:33:33;;;;;;;6.40;4.13;;;21.10;81.80;;;;;;5092592;28;20468;-71
2021/09/23 12:36:08;;;;;;;6.68;3.10;;;21.10;82.60;;;;;;5093220;28;20042;-71
2021/09/23 12:38:34;;;;;;;9.32;3.35;;;21.20;82.80;;;;;;5075803;28;20369;-71
2021/09/23 12:41:00;;;;;;;5.85;3.30;;;21.20;82.70;;;;;;5076367;28;20031;-71
2021/09/23 12:43:33;;;;;;;6.78;3.05;;;21.30;82.80;;;;;;5094576;28;20020;-71
2021/09/23 12:46:13;;;;;;;7.68;3.30;;;21.30;82.50;;;;;;5076893;28;20046;-71
2021/09/23 12:48:40;;;;;;;5.75;3.15;;;21.60;82.10;;;;;;5077157;28;20489;-71
2021/09/23 12:51:07;;;;;;;4.70;3.58;;;21.50;81.90;;;;;;5077076;28;20089;-71